Allentsteig, Austria

2:22 AM CET on January 28, 2015 (GMT +0100)
INIEDERS238 | Change Station
CLOSE
Current Station
Personal Weather Station
Location: Limpfings, NIEDERöSTERREICH
Elevation: 1719 ft
Nearby Weather Stations

Elev 1719 ft 48.75 °N, 15.27 °E | Updated 8 seconds ago

Overcast
Overcast
30.4 °F
Feels Like 30 °F
N
0.9
Wind Variable Wind from SW
Gusts 2.5 mph

Today
High -- | Low -- °F
--% Chance of Precip.
Yesterday
High -- | Low -- °F
Precip. -- in
7:33 AM 4:49 PM
First Quarter, 59% visible
Pressure 30.01 in
Visibility 6.2 miles
Clouds Mostly Cloudy 3000 ft
Overcast 5000 ft
Windchill 30 °F
Dew Point 26 °F
Humidity 83%
Rainfall 0.00 in
Snow Depth Not available.
UV 0.0 out of 12
Pollen Not available.
Air Quality Not available.
Flu Activity Not available.
METAR LKNA 280100Z 28005KT 9999 BKN030 OVC050 M01/M02 Q1016

More Conditions Fewer Conditions

Pressure 30.01 in
Visibility 6.2 miles
Clouds Mostly Cloudy 3000 ft
Overcast 5000 ft
Windchill 30 °F
Dew Point 26 °F
Humidity 83%
Rainfall 0.00 in
Snow Depth Not available.
UV 0.0 out of 12
Pollen Not available.
Air Quality Not available.
Flu Activity Not available.
METAR LKNA 280100Z 28005KT 9999 BKN030 OVC050 M01/M02 Q1016

More Conditions Fewer Conditions

10-Day Weather Forecast

Almanac

Astronomy

Jan. 28, 2015 Rise Set
Actual Time
Civil Twilight
Nautical Twilight
Astronomical Twilight
Moon
Length of Visible Light
Length of Day
Tomorrow will be .
, % of the Moon is Illuminated

Today's Extremes

Country Highs Country Lows

Community

WunderPhotos

Upload Photos

1,791,024 photos uploaded!

WunderBlogs® & News

Nearby

Air Quality

  Air Quality AQ Index Pollutant
Not available.

Snow Depth

Station Depth Elevation

Earthquake Activity

City Distance Mag. Time & Date
Minimum magnitude displayed is 2.5.

Coastal Water Temperatures

Place Temperature

Nearby Weather Stations